createdAt,value
2022-10-02T00:01:17.991Z,101497.75
2022-10-02T00:03:47.037Z,101499.16
2022-10-02T00:06:21.984Z,101495.03
2022-10-02T00:08:53.206Z,101490.63
2022-10-02T00:11:24.231Z,101489.09
2022-10-02T00:13:55.237Z,101497.94
2022-10-02T00:16:31.046Z,101507.03
2022-10-02T00:18:58.910Z,101498.91
2022-10-02T00:21:39.172Z,101505.69
2022-10-02T00:24:12.703Z,101503.56
2022-10-02T00:26:43.794Z,101500.34
2022-10-02T00:29:33.065Z,101508.31
2022-10-02T00:32:17.365Z,101514.81
2022-10-02T00:35:11.318Z,101507.22
2022-10-02T00:37:46.133Z,101506.81
2022-10-02T00:40:37.125Z,101505.81
2022-10-02T00:43:13.630Z,101509.59
2022-10-02T00:46:11.868Z,101503.97
2022-10-02T00:48:49.656Z,101505.91
2022-10-02T00:51:38.250Z,101514.25
2022-10-02T00:54:17.703Z,101504.84
2022-10-02T00:56:59.570Z,101498.69
2022-10-02T00:59:41.486Z,101491.13
2022-10-02T01:02:14.943Z,101491.25
2022-10-02T01:04:44.178Z,101506.81
2022-10-02T01:07:13.905Z,101511.78
2022-10-02T01:09:42.866Z,101513.00
2022-10-02T01:12:11.084Z,101503.75
2022-10-02T01:14:40.482Z,101506.13
2022-10-02T01:17:22.576Z,101504.19
2022-10-02T01:19:52.404Z,101494.78
2022-10-02T01:22:27.818Z,101494.03
2022-10-02T01:24:57.985Z,101495.84
2022-10-02T01:27:27.203Z,101507.25
2022-10-02T01:29:57.982Z,101509.44
2022-10-02T01:32:28.094Z,101495.50
2022-10-02T01:34:57.043Z,101487.88
2022-10-02T01:37:30.395Z,101483.41
2022-10-02T01:40:02.998Z,101498.06
2022-10-02T01:42:31.721Z,101505.84
2022-10-02T01:44:59.867Z,101502.19
2022-10-02T01:47:38.370Z,101494.81
2022-10-02T01:50:17.501Z,101493.47
2022-10-02T01:52:53.621Z,101492.22
2022-10-02T01:55:40.541Z,101489.69
2022-10-02T01:58:20.309Z,101488.09
2022-10-02T02:00:57.343Z,101494.81
2022-10-02T02:03:37.487Z,101494.69
2022-10-02T02:06:13.122Z,101504.34
2022-10-02T02:08:50.169Z,101495.28
2022-10-02T02:11:21.522Z,101499.50
2022-10-02T02:13:52.698Z,101505.38
2022-10-02T02:16:26.856Z,101495.81
2022-10-02T02:19:01.445Z,101498.88
2022-10-02T02:21:34.038Z,101502.25
2022-10-02T02:24:06.881Z,101501.13
2022-10-02T02:26:37.827Z,101499.09
2022-10-02T02:29:09.699Z,101491.72
2022-10-02T02:31:40.819Z,101485.78
2022-10-02T02:34:14.399Z,101490.72
2022-10-02T02:36:45.659Z,101495.28
2022-10-02T02:39:18.349Z,101494.06
2022-10-02T02:41:50.809Z,101493.28
2022-10-02T02:44:25.235Z,101492.75
2022-10-02T02:47:07.461Z,101485.06
2022-10-02T02:49:49.602Z,101484.38
2022-10-02T02:52:21.915Z,101467.19
2022-10-02T02:54:54.977Z,101472.44
2022-10-02T02:57:29.464Z,101469.22
2022-10-02T03:00:00.206Z,101466.94
2022-10-02T03:02:28.096Z,101473.41
2022-10-02T03:04:55.897Z,101471.22
2022-10-02T03:07:23.753Z,101478.72
2022-10-02T03:10:02.610Z,101472.56
2022-10-02T03:12:44.118Z,101476.91
2022-10-02T03:15:29.738Z,101473.00
2022-10-02T03:18:13.911Z,101479.00
2022-10-02T03:20:45.805Z,101463.88
2022-10-02T03:23:23.879Z,101470.16
2022-10-02T03:25:59.252Z,101471.63
2022-10-02T03:28:54.296Z,101463.56
2022-10-02T03:31:24.024Z,101466.00
2022-10-02T03:33:53.703Z,101462.28
2022-10-02T03:36:24.560Z,101460.25
2022-10-02T03:39:19.742Z,101452.09
2022-10-02T03:41:43.289Z,101455.78
2022-10-02T03:44:12.318Z,101454.53
2022-10-02T03:46:40.378Z,101456.22
2022-10-02T03:49:08.233Z,101460.19
2022-10-02T03:51:36.010Z,101452.69
2022-10-02T03:54:03.988Z,101458.47
2022-10-02T03:56:39.820Z,101458.84
2022-10-02T03:59:15.797Z,101458.72
2022-10-02T04:01:50.224Z,101454.97
2022-10-02T04:04:25.098Z,101449.41
2022-10-02T04:06:58.224Z,101440.34
2022-10-02T04:09:32.673Z,101439.28
2022-10-02T04:12:06.944Z,101444.59
2022-10-02T04:14:40.702Z,101447.13
2022-10-02T04:17:14.150Z,101439.69
2022-10-02T04:19:46.143Z,101445.69
2022-10-02T04:22:34.573Z,101446.72
2022-10-02T04:25:08.027Z,101456.66
2022-10-02T04:27:41.459Z,101455.78
2022-10-02T04:30:13.271Z,101461.94
2022-10-02T04:32:41.025Z,101466.69
2022-10-02T04:35:14.872Z,101459.44
2022-10-02T04:38:19.110Z,101468.25
2022-10-02T04:41:05.095Z,101469.47
2022-10-02T04:43:45.509Z,101473.34
2022-10-02T04:46:27.865Z,101476.03
2022-10-02T04:49:11.106Z,101480.00
2022-10-02T04:52:03.673Z,101476.94
2022-10-02T04:54:47.036Z,101482.09
2022-10-02T04:57:27.064Z,101479.09
2022-10-02T05:00:05.918Z,101488.34
2022-10-02T05:02:58.552Z,101482.97
2022-10-02T05:05:40.134Z,101490.97
2022-10-02T05:08:24.922Z,101486.84
2022-10-02T05:11:14.389Z,101492.19
2022-10-02T05:14:01.360Z,101490.00
2022-10-02T05:16:43.248Z,101490.16
2022-10-02T05:19:37.748Z,101506.75
2022-10-02T05:22:27.828Z,101499.41
2022-10-02T05:25:08.707Z,101509.81
2022-10-02T05:28:02.984Z,101515.19
2022-10-02T05:30:38.470Z,101518.66
2022-10-02T05:33:24.085Z,101516.25
2022-10-02T05:36:05.947Z,101514.16
2022-10-02T05:38:54.596Z,101512.63
2022-10-02T05:41:33.398Z,101511.81
2022-10-02T05:44:05.603Z,101508.59
2022-10-02T05:46:41.376Z,101514.41
2022-10-02T05:49:16.022Z,101515.34
2022-10-02T05:51:55.544Z,101515.34
2022-10-02T05:54:36.750Z,101514.38
2022-10-02T05:57:13.125Z,101526.34
2022-10-02T05:59:48.970Z,101518.31
2022-10-02T06:02:25.387Z,101500.94
2022-10-02T06:05:00.661Z,101505.03
2022-10-02T06:07:31.836Z,101511.22
2022-10-02T06:10:04.141Z,101522.31
2022-10-02T06:12:39.240Z,101543.22
2022-10-02T06:15:11.430Z,101553.69
2022-10-02T06:17:44.246Z,101543.50
2022-10-02T06:20:21.933Z,101541.09
2022-10-02T06:22:54.877Z,101544.81
2022-10-02T06:25:28.893Z,101540.50
2022-10-02T06:28:00.624Z,101533.94
2022-10-02T06:30:31.750Z,101534.84
2022-10-02T06:33:05.575Z,101527.56
2022-10-02T06:35:54.396Z,101536.22
2022-10-02T06:38:40.904Z,101537.03
2022-10-02T06:41:20.453Z,101530.84
2022-10-02T06:44:09.394Z,101539.16
2022-10-02T06:46:50.614Z,101543.19
2022-10-02T06:49:31.540Z,101546.19
2022-10-02T06:52:09.217Z,101541.66
2022-10-02T06:55:02.992Z,101552.47
2022-10-02T06:57:39.522Z,101548.59
2022-10-02T07:00:12.101Z,101548.91
2022-10-02T07:03:16.628Z,101548.84
2022-10-02T07:06:07.241Z,101554.16
2022-10-02T07:08:50.542Z,101552.22
2022-10-02T07:11:28.085Z,101559.25
2022-10-02T07:14:12.298Z,101564.28
2022-10-02T07:16:57.611Z,101566.09
2022-10-02T07:19:53.282Z,101574.09
2022-10-02T07:22:45.922Z,101568.91
2022-10-02T07:25:36.124Z,101575.06
2022-10-02T07:28:14.518Z,101572.97
2022-10-02T07:30:51.655Z,101572.88
2022-10-02T07:33:31.011Z,101581.72
2022-10-02T07:36:04.990Z,101582.50
2022-10-02T07:38:54.484Z,101568.97
2022-10-02T07:41:48.486Z,101569.19
2022-10-02T07:44:43.980Z,101579.38
2022-10-02T07:47:23.824Z,101576.41
2022-10-02T07:49:57.092Z,101583.50
2022-10-02T07:52:37.341Z,101584.09
2022-10-02T07:55:17.299Z,101588.50
2022-10-02T07:57:57.528Z,101594.75
2022-10-02T08:00:29.509Z,101590.16
2022-10-02T08:03:01.275Z,101583.28
2022-10-02T08:05:33.652Z,101593.28
2022-10-02T08:08:05.370Z,101598.50
2022-10-02T08:10:38.150Z,101602.97
2022-10-02T08:13:16.050Z,101605.66
2022-10-02T08:15:47.169Z,101601.53
2022-10-02T08:18:35.923Z,101608.34
2022-10-02T08:21:06.543Z,101607.28
2022-10-02T08:23:40.282Z,101615.09
2022-10-02T08:26:15.434Z,101607.19
2022-10-02T08:28:48.009Z,101609.41
2022-10-02T08:31:17.151Z,101627.16
2022-10-02T08:33:44.885Z,101617.72
2022-10-02T08:36:41.253Z,101623.09
2022-10-02T08:39:25.137Z,101620.91
2022-10-02T08:42:28.390Z,101624.44
2022-10-02T08:45:39.179Z,101630.72
2022-10-02T08:48:49.692Z,101620.47
2022-10-02T08:52:03.188Z,101628.25
2022-10-02T08:55:14.112Z,101629.03
2022-10-02T08:58:27.962Z,101630.00
2022-10-02T09:01:11.435Z,101633.34
2022-10-02T09:03:59.669Z,101628.56
2022-10-02T09:07:10.368Z,101631.81
2022-10-02T09:10:37.605Z,101633.56
2022-10-02T09:13:43.230Z,101643.69
2022-10-02T09:16:13.337Z,101642.84
2022-10-02T09:19:02.912Z,101640.66
2022-10-02T09:21:51.558Z,101643.63
2022-10-02T09:24:59.235Z,101634.94
2022-10-02T09:27:54.361Z,101639.81
2022-10-02T09:30:50.328Z,101648.59
2022-10-02T09:33:51.504Z,101653.09
2022-10-02T09:36:49.394Z,101651.81
2022-10-02T09:40:01.222Z,101651.06
2022-10-02T09:42:56.230Z,101642.78
2022-10-02T09:45:41.990Z,101646.31
2022-10-02T09:48:45.091Z,101643.19
2022-10-02T09:51:46.134Z,101641.13
2022-10-02T09:54:45.915Z,101642.69
2022-10-02T09:57:57.308Z,101642.13
2022-10-02T10:00:38.945Z,101644.78
2022-10-02T10:03:44.502Z,101650.06
2022-10-02T10:06:40.309Z,101650.59
2022-10-02T10:09:40.434Z,101644.44
2022-10-02T10:12:41.499Z,101643.31
2022-10-02T10:15:36.781Z,101638.44
2022-10-02T10:18:43.510Z,101645.13
2022-10-02T10:21:41.288Z,101638.97
2022-10-02T10:24:31.497Z,101646.66
2022-10-02T10:27:25.006Z,101651.41
2022-10-02T10:30:08.509Z,101649.56
2022-10-02T10:33:18.534Z,101659.94
2022-10-02T10:36:35.331Z,101663.78
2022-10-02T10:39:26.839Z,101663.75
2022-10-02T10:42:16.490Z,101658.97
2022-10-02T10:45:05.697Z,101654.28
2022-10-02T10:48:07.167Z,101647.03
2022-10-02T10:50:52.323Z,101655.31
2022-10-02T10:54:04.794Z,101648.03
2022-10-02T10:56:38.774Z,101657.31
2022-10-02T10:59:50.460Z,101642.00
2022-10-02T11:02:54.511Z,101637.47
2022-10-02T11:05:55.751Z,101633.16
2022-10-02T11:08:58.645Z,101642.06
2022-10-02T11:11:39.627Z,101624.19
2022-10-02T11:14:26.692Z,101634.38
2022-10-02T11:17:29.125Z,101637.00
2022-10-02T11:20:16.410Z,101633.06
2022-10-02T11:23:01.590Z,101637.00
2022-10-02T11:25:54.146Z,101640.91
2022-10-02T11:28:56.228Z,101633.97
2022-10-02T11:31:48.385Z,101647.91
2022-10-02T11:34:46.290Z,101650.72
2022-10-02T11:37:37.703Z,101656.31
2022-10-02T11:40:35.625Z,101649.44
2022-10-02T11:43:19.905Z,101647.38
2022-10-02T11:46:17.030Z,101650.72
2022-10-02T11:49:14.658Z,101646.00
2022-10-02T11:52:14.947Z,101648.56
2022-10-02T11:54:56.270Z,101656.09
2022-10-02T11:57:40.056Z,101657.75
2022-10-02T12:00:33.295Z,101656.88
2022-10-02T12:03:05.920Z,101663.88
2022-10-02T12:05:55.697Z,101657.47
2022-10-02T12:08:34.463Z,101674.34
2022-10-02T12:11:13.068Z,101652.56
2022-10-02T12:13:59.785Z,101651.69
2022-10-02T12:16:41.468Z,101654.13
2022-10-02T12:19:26.361Z,101652.22
2022-10-02T12:22:28.128Z,101654.59
2022-10-02T12:25:21.680Z,101649.38
2022-10-02T12:27:55.858Z,101650.50
2022-10-02T12:30:28.722Z,101657.31
2022-10-02T12:33:25.262Z,101661.44
2022-10-02T12:36:17.635Z,101650.75
2022-10-02T12:38:57.211Z,101653.44
2022-10-02T12:41:43.465Z,101654.34
2022-10-02T12:44:28.055Z,101656.56
2022-10-02T12:47:21.257Z,101644.81
2022-10-02T12:50:04.371Z,101646.63
2022-10-02T12:53:05.530Z,101640.63
2022-10-02T12:56:23.313Z,101633.44
2022-10-02T12:59:02.554Z,101647.03
2022-10-02T13:02:17.816Z,101642.47
2022-10-02T13:05:12.571Z,101639.19
2022-10-02T13:07:58.018Z,101643.81
2022-10-02T13:10:31.492Z,101635.16
2022-10-02T13:13:17.579Z,101632.44
2022-10-02T13:15:54.714Z,101627.47
2022-10-02T13:18:43.749Z,101624.63
2022-10-02T13:21:20.406Z,101623.91
2022-10-02T13:24:01.608Z,101619.06
2022-10-02T13:26:38.703Z,101612.38
2022-10-02T13:29:34.488Z,101615.00
2022-10-02T13:32:17.062Z,101622.78
2022-10-02T13:35:00.469Z,101619.31
2022-10-02T13:37:45.567Z,101613.00
2022-10-02T13:40:21.542Z,101611.78
2022-10-02T13:43:09.112Z,101610.81
2022-10-02T13:45:42.646Z,101616.59
2022-10-02T13:48:19.489Z,101613.34
2022-10-02T13:50:54.282Z,101625.00
2022-10-02T13:53:44.729Z,101619.34
2022-10-02T13:56:26.421Z,101619.66
2022-10-02T13:59:14.154Z,101611.13
2022-10-02T14:01:58.217Z,101619.81
2022-10-02T14:04:46.214Z,101620.88
2022-10-02T14:07:31.746Z,101623.88
2022-10-02T14:10:09.010Z,101618.19
2022-10-02T14:12:48.566Z,101614.25
2022-10-02T14:15:45.166Z,101620.84
2022-10-02T14:18:31.213Z,101620.34
2022-10-02T14:21:09.398Z,101627.03
2022-10-02T14:24:00.905Z,101625.78
2022-10-02T14:26:43.234Z,101621.19
2022-10-02T14:29:27.166Z,101629.81
2022-10-02T14:32:13.238Z,101624.94
2022-10-02T14:34:58.185Z,101626.41
2022-10-02T14:37:42.387Z,101620.66
2022-10-02T14:40:14.603Z,101621.16
2022-10-02T14:42:57.019Z,101616.34
2022-10-02T14:46:14.063Z,101623.31
2022-10-02T14:49:06.782Z,101617.09
2022-10-02T14:51:53.303Z,101614.84
2022-10-02T14:54:31.625Z,101613.22
2022-10-02T14:57:20.701Z,101615.59
2022-10-02T15:00:15.796Z,101619.09
2022-10-02T15:03:02.673Z,101621.97
2022-10-02T15:05:48.189Z,101616.25
2022-10-02T15:08:18.770Z,101616.84
2022-10-02T15:10:49.153Z,101623.28
2022-10-02T15:13:26.770Z,101618.13
2022-10-02T15:16:20.130Z,101624.34
2022-10-02T15:18:58.063Z,101624.69
2022-10-02T15:21:30.891Z,101615.63
2022-10-02T15:23:59.985Z,101619.78
2022-10-02T15:26:41.861Z,101617.66
2022-10-02T15:29:21.853Z,101618.31
2022-10-02T15:32:20.832Z,101613.25
2022-10-02T15:34:59.066Z,101620.75
2022-10-02T15:37:36.676Z,101620.88
2022-10-02T15:40:19.211Z,101616.47
2022-10-02T15:42:56.148Z,101622.69
2022-10-02T15:45:44.093Z,101622.41
2022-10-02T15:48:29.985Z,101617.19
2022-10-02T15:51:05.392Z,101616.16
2022-10-02T15:53:51.368Z,101615.97
2022-10-02T15:56:54.834Z,101622.63
2022-10-02T15:59:41.268Z,101614.66
2022-10-02T16:02:25.540Z,101623.03
2022-10-02T16:05:06.642Z,101630.19
2022-10-02T16:08:01.792Z,101632.75
2022-10-02T16:10:38.610Z,101633.09
2022-10-02T16:13:28.384Z,101636.75
2022-10-02T16:16:05.227Z,101630.25
2022-10-02T16:18:46.422Z,101639.72
2022-10-02T16:21:33.897Z,101645.28
2022-10-02T16:24:32.581Z,101645.13
2022-10-02T16:27:19.498Z,101645.56
2022-10-02T16:30:08.239Z,101652.03
2022-10-02T16:32:47.385Z,101656.53
2022-10-02T16:35:25.017Z,101654.56
2022-10-02T16:38:00.954Z,101652.97
2022-10-02T16:40:40.463Z,101663.28
2022-10-02T16:43:44.608Z,101653.66
2022-10-02T16:46:15.357Z,101655.97
2022-10-02T16:48:52.900Z,101657.53
2022-10-02T16:51:40.275Z,101664.97
2022-10-02T16:54:20.744Z,101659.50
2022-10-02T16:56:54.958Z,101660.34
2022-10-02T16:59:27.273Z,101663.44
2022-10-02T17:02:17.067Z,101653.38
2022-10-02T17:04:58.673Z,101661.84
2022-10-02T17:07:38.347Z,101668.56
2022-10-02T17:10:19.347Z,101667.16
2022-10-02T17:12:53.681Z,101675.66
2022-10-02T17:15:29.532Z,101671.66
2022-10-02T17:18:12.309Z,101673.50
2022-10-02T17:20:45.390Z,101683.03
2022-10-02T17:23:19.834Z,101674.88
2022-10-02T17:25:58.873Z,101678.09
2022-10-02T17:28:32.133Z,101676.81
2022-10-02T17:31:35.689Z,101685.28
2022-10-02T17:34:19.848Z,101699.75
2022-10-02T17:36:54.126Z,101701.75
2022-10-02T17:40:00.861Z,101704.66
2022-10-02T17:42:42.141Z,101713.31
2022-10-02T17:45:26.440Z,101715.78
2022-10-02T17:48:07.416Z,101713.84
2022-10-02T17:51:31.260Z,101717.16
2022-10-02T17:54:41.026Z,101716.25
2022-10-02T17:57:39.358Z,101722.63
2022-10-02T18:00:14.748Z,101718.41
2022-10-02T18:02:58.780Z,101725.63
2022-10-02T18:05:39.143Z,101725.56
2022-10-02T18:08:28.566Z,101728.84
2022-10-02T18:11:04.352Z,101735.41
2022-10-02T18:13:57.309Z,101740.72
2022-10-02T18:16:48.043Z,101745.19
2022-10-02T18:19:27.791Z,101746.19
2022-10-02T18:22:31.135Z,101743.47
2022-10-02T18:25:24.236Z,101745.22
2022-10-02T18:28:08.016Z,101750.44
2022-10-02T18:30:46.150Z,101748.13
2022-10-02T18:33:33.143Z,101753.28
2022-10-02T18:36:18.999Z,101753.53
2022-10-02T18:38:59.618Z,101761.03
2022-10-02T18:41:50.190Z,101772.28
2022-10-02T18:44:34.360Z,101770.88
2022-10-02T18:47:12.264Z,101773.00
2022-10-02T18:49:51.338Z,101782.09
2022-10-02T18:52:33.933Z,101776.28
2022-10-02T18:55:18.586Z,101779.97
2022-10-02T18:57:59.569Z,101773.81
2022-10-02T19:00:48.673Z,101782.84
2022-10-02T19:03:29.693Z,101785.69
2022-10-02T19:06:07.252Z,101790.97
2022-10-02T19:09:02.765Z,101792.41
2022-10-02T19:11:32.689Z,101781.94
2022-10-02T19:14:02.199Z,101795.00
2022-10-02T19:16:31.175Z,101793.47
2022-10-02T19:19:20.717Z,101798.41
2022-10-02T19:21:49.458Z,101795.78
2022-10-02T19:24:20.165Z,101797.88
2022-10-02T19:26:52.067Z,101809.72
2022-10-02T19:29:29.434Z,101811.94
2022-10-02T19:31:59.701Z,101812.97
2022-10-02T19:34:32.197Z,101814.03
2022-10-02T19:37:04.910Z,101813.94
2022-10-02T19:39:34.965Z,101816.53
2022-10-02T19:42:08.431Z,101825.16
2022-10-02T19:44:40.801Z,101831.25
2022-10-02T19:47:17.077Z,101832.06
2022-10-02T19:49:49.291Z,101830.72
2022-10-02T19:52:43.692Z,101836.19
2022-10-02T19:55:23.942Z,101840.94
2022-10-02T19:57:55.058Z,101833.50
2022-10-02T20:00:23.167Z,101843.78
2022-10-02T20:02:55.000Z,101842.44
2022-10-02T20:05:26.230Z,101842.00
2022-10-02T20:08:00.909Z,101846.19
2022-10-02T20:10:35.929Z,101856.09
2022-10-02T20:13:13.827Z,101860.09
2022-10-02T20:16:03.244Z,101852.97
2022-10-02T20:18:31.805Z,101871.13
2022-10-02T20:21:07.616Z,101874.19
2022-10-02T20:23:39.180Z,101882.00
2022-10-02T20:26:12.276Z,101876.97
2022-10-02T20:28:46.825Z,101884.34
2022-10-02T20:31:19.121Z,101879.94
2022-10-02T20:33:50.070Z,101885.91
2022-10-02T20:36:26.069Z,101881.84
2022-10-02T20:38:59.949Z,101894.44
2022-10-02T20:41:31.914Z,101890.00
2022-10-02T20:44:04.356Z,101891.84
2022-10-02T20:47:06.821Z,101891.06
2022-10-02T20:50:07.671Z,101895.75
2022-10-02T20:53:23.870Z,101893.66
2022-10-02T20:55:58.873Z,101899.38
2022-10-02T20:58:45.252Z,101896.97
2022-10-02T21:01:18.808Z,101904.19
2022-10-02T21:04:22.089Z,101906.88
2022-10-02T21:07:07.905Z,101902.28
2022-10-02T21:10:02.640Z,101913.13
2022-10-02T21:13:00.336Z,101909.06
2022-10-02T21:15:55.717Z,101907.56
2022-10-02T21:19:09.542Z,101902.00
2022-10-02T21:22:08.238Z,101907.38
2022-10-02T21:25:18.734Z,101911.59
2022-10-02T21:28:06.114Z,101911.25
2022-10-02T21:30:43.543Z,101919.41
2022-10-02T21:33:15.541Z,101927.41
2022-10-02T21:35:53.284Z,101931.69
2022-10-02T21:38:42.134Z,101928.09
2022-10-02T21:41:47.246Z,101932.09
2022-10-02T21:44:47.962Z,101945.47
2022-10-02T21:47:40.479Z,101949.66
2022-10-02T21:50:50.102Z,101944.34
2022-10-02T21:54:04.686Z,101943.47
2022-10-02T21:57:04.432Z,101939.91
2022-10-02T22:00:07.003Z,101942.16
2022-10-02T22:03:05.013Z,101945.53
2022-10-02T22:06:07.263Z,101943.44
2022-10-02T22:08:49.004Z,101940.84
2022-10-02T22:11:27.554Z,101942.25
2022-10-02T22:14:00.492Z,101945.81
2022-10-02T22:16:42.635Z,101954.88
2022-10-02T22:19:20.462Z,101948.34
2022-10-02T22:22:05.030Z,101947.38
2022-10-02T22:24:45.273Z,101945.88
2022-10-02T22:27:26.914Z,101949.34
2022-10-02T22:29:56.369Z,101953.28
2022-10-02T22:33:13.323Z,101960.69
2022-10-02T22:36:08.965Z,101953.81
2022-10-02T22:38:38.734Z,101960.09
2022-10-02T22:41:12.860Z,101948.22
2022-10-02T22:43:49.849Z,101953.81
2022-10-02T22:46:26.378Z,101959.50
2022-10-02T22:49:04.530Z,101961.78
2022-10-02T22:51:41.494Z,101966.53
2022-10-02T22:54:20.125Z,101965.94
2022-10-02T22:56:57.949Z,101960.13
2022-10-02T22:59:31.085Z,101960.44
2022-10-02T23:02:08.239Z,101960.59
2022-10-02T23:04:44.970Z,101961.88
2022-10-02T23:07:17.479Z,101956.41
2022-10-02T23:09:51.654Z,101964.22
2022-10-02T23:12:28.104Z,101962.31
2022-10-02T23:15:26.881Z,101967.25
2022-10-02T23:17:59.127Z,101964.84
2022-10-02T23:20:34.458Z,101966.63
2022-10-02T23:23:14.757Z,101974.09
2022-10-02T23:25:46.863Z,101964.00
2022-10-02T23:28:19.845Z,101964.66
2022-10-02T23:30:53.718Z,101963.75
2022-10-02T23:33:26.081Z,101968.13
2022-10-02T23:36:01.922Z,101957.53
2022-10-02T23:38:38.278Z,101957.78
2022-10-02T23:41:28.171Z,101964.16
2022-10-02T23:44:08.699Z,101967.03
2022-10-02T23:46:55.714Z,101971.63
2022-10-02T23:49:26.375Z,101969.56
2022-10-02T23:52:04.134Z,101977.66
2022-10-02T23:54:44.641Z,101976.19
2022-10-02T23:57:40.728Z,101961.44
